Provincetown III — WDB8185 — position and weather

sailwx.info

Track history (hours):
 
Tides and Currents Weather Stations Pressure Air Temp Water Temp Dewpoint Dewpoint Depression Visibility Wind Speed Wind Dir Waves Ship Positions

Provincetown III

Owner: MYSTIC FERRY LEASING LLC, BOSTON, MA. More information available from US FCC via Universal Licensing System and Coast Guard Vessel Documentation Center.

Last reported at 2016-Aug-25 00:34 UTC. Time now 2016-Aug-25 01:01 UTC.
Position N 42°15' W 070°42'.

Length 30 m; draft 2 m.

Type: Passenger vessel. MMSI: 366954420.

Date/timePositionNaut miles runAvg speedWind from/ knotsBaromVisibWave heightAir tempDewpointWater temp
2016-Aug-25 00:34N 42°15' W 070°42'3 1.2
2016-Aug-24 22:16N 42°14' W 070°38'2027.4
2016-Aug-24 21:33N 42°21' W 071°02'2 1.7
2016-Aug-24 20:34N 42°21' W 071°00'11 3.8
2016-Aug-24 17:33N 42°17' W 070°46'1313.1
2016-Aug-24 16:34N 42°21' W 071°02'1716.7
2016-Aug-24 15:33N 42°15' W 070°42'6 2.8
2016-Aug-24 13:24N 42°12' W 070°35'2326.6
2016-Aug-24 12:32N 42°21' W 071°02'0 0.0
2016-Aug-23 01:16N 42°21' W 071°02'1927.1
2016-Aug-23 00:33N 42°14' W 070°39'1 0.2
2016-Aug-22 22:16N 42°13' W 070°38'2027.9
2016-Aug-22 21:33N 42°21' W 071°02'5 5.4
2016-Aug-22 20:33N 42°19' W 070°55'7 2.4
2016-Aug-22 17:33N 42°17' W 070°46'1312.8
2016-Aug-22 16:33N 42°21' W 071°03'0 0.1
2016-Aug-22 15:34N 42°21' W 071°02'0 0.0
2016-Aug-22 01:13N 42°21' W 071°02'912.9
2016-Aug-22 00:34N 42°19' W 070°51'11 3.6
2016-Aug-21 21:23N 42°13' W 070°38'2023.8
2016-Aug-21 20:33N 42°21' W 071°02'2020.1
2016-Aug-21 19:34N 42°13' W 070°38'2222.2
2016-Aug-21 18:33N 42°03' W 070°11'1312.9
2016-Aug-21 17:33N 42°08' W 070°27'2525.7
2016-Aug-21 16:34N 42°20' W 070°57'2 2.0
2016-Aug-21 15:34N 42°19' W 070°55'3129.4
2016-Aug-21 14:31N 42°04' W 070°19'12 9.0
2016-Aug-21 13:08N 42°11' W 070°33'1728.7
2016-Aug-21 12:34N 42°19' W 070°52'8 0.7
2016-Aug-21 01:15N 42°21' W 071°02'6 8.1
2016-Aug-21 00:34N 42°19' W 070°55'3429.8
2016-Aug-20 23:26N 42°02' W 070°16'5 3.9
2016-Aug-20 22:08N 42°06' W 070°21'1525.6
2016-Aug-20 21:34N 42°14' W 070°38'1919.3
2016-Aug-20 20:33N 42°21' W 071°02'1919.1
2016-Aug-20 19:34N 42°13' W 070°39'2323.1
2016-Aug-20 18:33N 42°03' W 070°11'1816.1
2016-Aug-20 17:27N 42°11' W 070°32'2427.0
2016-Aug-20 16:34N 42°21' W 071°02'8 7.8
2016-Aug-20 15:34N 42°19' W 070°52'2928.9
2016-Aug-20 14:33N 42°04' W 070°19'2 2.1
2016-Aug-20 13:34N 42°05' W 070°20'2827.8
2016-Aug-20 12:34N 42°19' W 070°53'7 0.6
2016-Aug-20 00:23N 42°21' W 071°02'2429.0
2016-Aug-19 23:34N 42°10' W 070°34'9 6.2
2016-Aug-19 22:11N 42°07' W 070°23'1828.5
2016-Aug-19 21:34N 42°16' W 070°44'1514.8
2016-Aug-19 20:34N 42°21' W 071°02'0 0.0
2016-Aug-19 19:34N 42°21' W 071°02'0 0.0
2016-Aug-19 01:10N 42°21' W 071°02'1016.5
2016-Aug-19 00:33N 42°18' W 070°49'13 4.3
2016-Aug-18 21:33N 42°11' W 070°35'2322.7
2016-Aug-18 20:33N 42°21' W 071°02'4 3.8
2016-Aug-18 19:33N 42°20' W 070°58'1 1.3
2016-Aug-18 18:34N 42°20' W 070°59'3 2.5
2016-Aug-18 17:33N 42°21' W 071°02'0 0.1
2016-Aug-18 16:33N 42°21' W 071°02'10 9.9
2016-Aug-18 15:34N 42°18' W 070°50'2926.1
2016-Aug-18 14:27N 42°03' W 070°16'1511.7
2016-Aug-18 13:11N 42°11' W 070°33'1727.9
2016-Aug-18 12:34N 42°19' W 070°54'7 6.6
2016-Aug-18 11:33N 42°21' W 071°02'0 0.0
2016-Aug-17 20:20N 42°21' W 071°02'1721.5
2016-Aug-17 19:33N 42°15' W 070°41'3 1.5
2016-Aug-17 17:19N 42°13' W 070°38'2026.8
2016-Aug-17 16:34N 42°21' W 071°02'0 0.0
2016-Aug-17 15:34N 42°21' W 071°02'0 0.0
2016-Aug-16 01:08N 42°21' W 071°02'1628.3
2016-Aug-16 00:34N 42°15' W 070°42'5 2.3
2016-Aug-15 22:20N 42°12' W 070°36'2227.7
2016-Aug-15 21:34N 42°21' W 071°02'2 1.8
2016-Aug-15 20:34N 42°21' W 071°00'12 4.1
2016-Aug-15 17:33N 42°16' W 070°45'1414.2
2016-Aug-15 16:33N 42°21' W 071°02'0 0.1
2016-Aug-15 15:33N 42°21' W 071°02'  
Track history (hours):
 
Tides and Currents Weather Stations Pressure Air Temp Water Temp Dewpoint Dewpoint Depression Visibility Wind Speed Wind Dir Waves Ship Positions

Provincetown III

Owner: MYSTIC FERRY LEASING LLC, BOSTON, MA. More information available from US FCC via Universal Licensing System and Coast Guard Vessel Documentation Center.

Last reported at 2016-Aug-25 00:34 UTC. Time now 2016-Aug-25 01:01 UTC.
Position N 42°15' W 070°42'.

Length 30 m; draft 2 m.

Type: Passenger vessel. MMSI: 366954420.

Date/timePositionNaut miles runAvg speedWind from/ knotsBaromVisibWave heightAir tempDewpointWater temp
2016-Aug-25 00:34N 42°15' W 070°42'3 1.2
2016-Aug-24 22:16N 42°14' W 070°38'2027.4
2016-Aug-24 21:33N 42°21' W 071°02'2 1.7
2016-Aug-24 20:34N 42°21' W 071°00'11 3.8
2016-Aug-24 17:33N 42°17' W 070°46'1313.1
2016-Aug-24 16:34N 42°21' W 071°02'1716.7
2016-Aug-24 15:33N 42°15' W 070°42'6 2.8
2016-Aug-24 13:24N 42°12' W 070°35'2326.6
2016-Aug-24 12:32N 42°21' W 071°02'0 0.0
2016-Aug-23 01:16N 42°21' W 071°02'1927.1
2016-Aug-23 00:33N 42°14' W 070°39'1 0.2
2016-Aug-22 22:16N 42°13' W 070°38'2027.9
2016-Aug-22 21:33N 42°21' W 071°02'5 5.4
2016-Aug-22 20:33N 42°19' W 070°55'7 2.4
2016-Aug-22 17:33N 42°17' W 070°46'1312.8
2016-Aug-22 16:33N 42°21' W 071°03'0 0.1
2016-Aug-22 15:34N 42°21' W 071°02'0 0.0
2016-Aug-22 01:13N 42°21' W 071°02'912.9
2016-Aug-22 00:34N 42°19' W 070°51'11 3.6
2016-Aug-21 21:23N 42°13' W 070°38'2023.8
2016-Aug-21 20:33N 42°21' W 071°02'2020.1
2016-Aug-21 19:34N 42°13' W 070°38'2222.2
2016-Aug-21 18:33N 42°03' W 070°11'1312.9
2016-Aug-21 17:33N 42°08' W 070°27'2525.7
2016-Aug-21 16:34N 42°20' W 070°57'2 2.0
2016-Aug-21 15:34N 42°19' W 070°55'3129.4
2016-Aug-21 14:31N 42°04' W 070°19'12 9.0
2016-Aug-21 13:08N 42°11' W 070°33'1728.7
2016-Aug-21 12:34N 42°19' W 070°52'8 0.7
2016-Aug-21 01:15N 42°21' W 071°02'6 8.1
2016-Aug-21 00:34N 42°19' W 070°55'3429.8
2016-Aug-20 23:26N 42°02' W 070°16'5 3.9
2016-Aug-20 22:08N 42°06' W 070°21'1525.6
2016-Aug-20 21:34N 42°14' W 070°38'1919.3
2016-Aug-20 20:33N 42°21' W 071°02'1919.1
2016-Aug-20 19:34N 42°13' W 070°39'2323.1
2016-Aug-20 18:33N 42°03' W 070°11'1816.1
2016-Aug-20 17:27N 42°11' W 070°32'2427.0
2016-Aug-20 16:34N 42°21' W 071°02'8 7.8
2016-Aug-20 15:34N 42°19' W 070°52'2928.9
2016-Aug-20 14:33N 42°04' W 070°19'2 2.1
2016-Aug-20 13:34N 42°05' W 070°20'2827.8
2016-Aug-20 12:34N 42°19' W 070°53'7 0.6
2016-Aug-20 00:23N 42°21' W 071°02'2429.0
2016-Aug-19 23:34N 42°10' W 070°34'9 6.2
2016-Aug-19 22:11N 42°07' W 070°23'1828.5
2016-Aug-19 21:34N 42°16' W 070°44'1514.8
2016-Aug-19 20:34N 42°21' W 071°02'0 0.0
2016-Aug-19 19:34N 42°21' W 071°02'0 0.0
2016-Aug-19 01:10N 42°21' W 071°02'1016.5
2016-Aug-19 00:33N 42°18' W 070°49'13 4.3
2016-Aug-18 21:33N 42°11' W 070°35'2322.7
2016-Aug-18 20:33N 42°21' W 071°02'4 3.8
2016-Aug-18 19:33N 42°20' W 070°58'1 1.3
2016-Aug-18 18:34N 42°20' W 070°59'3 2.5
2016-Aug-18 17:33N 42°21' W 071°02'0 0.1
2016-Aug-18 16:33N 42°21' W 071°02'10 9.9
2016-Aug-18 15:34N 42°18' W 070°50'2926.1
2016-Aug-18 14:27N 42°03' W 070°16'1511.7
2016-Aug-18 13:11N 42°11' W 070°33'1727.9
2016-Aug-18 12:34N 42°19' W 070°54'7 6.6
2016-Aug-18 11:33N 42°21' W 071°02'0 0.0
2016-Aug-17 20:20N 42°21' W 071°02'1721.5
2016-Aug-17 19:33N 42°15' W 070°41'3 1.5
2016-Aug-17 17:19N 42°13' W 070°38'2026.8
2016-Aug-17 16:34N 42°21' W 071°02'0 0.0
2016-Aug-17 15:34N 42°21' W 071°02'0 0.0
2016-Aug-16 01:08N 42°21' W 071°02'1628.3
2016-Aug-16 00:34N 42°15' W 070°42'5 2.3
2016-Aug-15 22:20N 42°12' W 070°36'2227.7
2016-Aug-15 21:34N 42°21' W 071°02'2 1.8
2016-Aug-15 20:34N 42°21' W 071°00'12 4.1
2016-Aug-15 17:33N 42°16' W 070°45'1414.2
2016-Aug-15 16:33N 42°21' W 071°02'0 0.1
2016-Aug-15 15:33N 42°21' W 071°02'  

Dump ship's entire track history